Terminal Aerodrome Forecast
Issued by NWS

Home | Current Version | Previous Version | Text Only | Print | Product List | Glossary On
Versions: 1 2 3 4 5 6 7 8 9 10 11 12
000
FTUS45 KRIW 182300
TAFWRL
TAF
KWRL 182332Z 1900/1924 36006KT P6SM FEW120 SCT250
     FM190200 VRB11KT P6SM VCSH SCT100 BKN150
     FM190400 VRB06KT P6SM VCSH BKN100
     FM190600 VRB06KT P6SM BKN100=

USA.gov is the U.S. government's official web portal to all federal, state and local government web resources and services.